Time;durP1;ratioP1;P1;durP2;ratioP2;P2;SDS_P1;SDS_P2;PMS_P1;PMS_P2;Temp;Humidity;BMP_temperature;BMP_pressure;BME280_temperature;BME280_humidity;BME280_pressure;Samples;Min_cycle;Max_cycle;Signal;HPM_P1;HPM_P2
2023/06/05 00:02:01;;;;;;;1.40;1.25;;;20.90;46.30;;;;;;5052816;28;20108;-75
2023/06/05 00:04:27;;;;;;;2.47;1.50;;;20.80;46.30;;;;;;5066565;28;20033;-78
2023/06/05 00:06:54;;;;;;;1.88;1.42;;;20.80;46.40;;;;;;5071259;28;20031;-75
2023/06/05 00:09:20;;;;;;;1.50;1.40;;;20.70;46.40;;;;;;5067817;28;20531;-74
2023/06/05 00:11:46;;;;;;;2.17;1.38;;;20.70;46.50;;;;;;5073350;28;20035;-75
2023/06/05 00:14:12;;;;;;;1.55;1.20;;;20.60;46.50;;;;;;5071915;28;20039;-75
2023/06/05 00:16:38;;;;;;;2.20;1.50;;;20.60;46.60;;;;;;5069426;28;20404;-79
2023/06/05 00:19:04;;;;;;;2.03;1.40;;;20.60;46.60;;;;;;5065952;28;20028;-74
2023/06/05 00:21:30;;;;;;;1.50;1.40;;;20.50;46.60;;;;;;5052260;28;20020;-75
2023/06/05 00:23:56;;;;;;;2.17;1.52;;;20.50;46.70;;;;;;5071161;28;20063;-75
2023/06/05 00:26:21;;;;;;;1.50;1.40;;;20.40;46.70;;;;;;5064182;28;20435;-75
2023/06/05 00:28:48;;;;;;;2.25;1.50;;;20.40;46.80;;;;;;5053797;28;20167;-75
2023/06/05 00:31:14;;;;;;;2.25;1.50;;;20.40;46.90;;;;;;5047245;28;20174;-75
2023/06/05 00:33:41;;;;;;;2.50;1.38;;;20.30;46.90;;;;;;5042180;28;20043;-75
2023/06/05 00:36:06;;;;;;;2.00;1.60;;;20.30;46.90;;;;;;5059278;28;20047;-74
2023/06/05 00:38:32;;;;;;;1.58;1.40;;;20.20;47.00;;;;;;5069982;28;20028;-75
2023/06/05 00:40:58;;;;;;;2.35;1.58;;;20.20;47.10;;;;;;5043362;28;20492;-75
2023/06/05 00:43:24;;;;;;;1.50;1.35;;;20.10;47.10;;;;;;5051912;28;20254;-76
2023/06/05 00:45:58;;;;;;;2.20;1.58;;;20.10;47.10;;;;;;5061651;28;20035;-75
2023/06/05 00:48:24;;;;;;;1.65;1.42;;;20.10;47.20;;;;;;5062791;28;20020;-79
2023/06/05 00:50:50;;;;;;;1.60;1.50;;;20.00;47.20;;;;;;5049645;28;20040;-75
2023/06/05 00:53:16;;;;;;;2.05;1.60;;;20.00;47.20;;;;;;5064903;28;20062;-75
2023/06/05 00:55:42;;;;;;;2.13;1.38;;;19.90;47.30;;;;;;5060980;28;20061;-78
2023/06/05 00:58:09;;;;;;;2.22;1.48;;;19.90;47.40;;;;;;5051960;28;21885;-76
2023/06/05 01:00:36;;;;;;;1.83;1.40;;;19.90;47.50;;;;;;5071088;28;20389;-76
2023/06/05 01:03:02;;;;;;;2.45;1.50;;;19.80;47.50;;;;;;5074118;28;20655;-76
2023/06/05 01:05:28;;;;;;;1.85;1.48;;;19.80;47.50;;;;;;5074022;28;20028;-76
2023/06/05 01:07:54;;;;;;;1.52;1.40;;;19.70;47.60;;;;;;5057749;28;20030;-76
2023/06/05 01:10:20;;;;;;;2.28;1.48;;;19.70;47.60;;;;;;5069989;28;20485;-76
2023/06/05 01:12:57;;;;;;;1.60;1.50;;;19.60;47.60;;;;;;5064595;28;20040;-76
2023/06/05 01:15:28;;;;;;;2.10;1.50;;;19.60;47.70;;;;;;5067373;28;20032;-77
2023/06/05 01:17:58;;;;;;;2.38;1.50;;;19.60;47.70;;;;;;5038573;28;20043;-76
2023/06/05 01:20:34;;;;;;;2.55;1.70;;;19.50;47.70;;;;;;5068125;28;20079;-76
2023/06/05 01:23:01;;;;;;;1.88;1.50;;;19.50;47.80;;;;;;5065894;28;20489;-76
2023/06/05 01:25:29;;;;;;;3.05;1.65;;;19.50;47.80;;;;;;5069769;28;20036;-76
2023/06/05 01:28:20;;;;;;;3.50;2.08;;;19.40;47.80;;;;;;5054567;28;20037;-76
2023/06/05 01:31:05;;;;;;;2.20;1.63;;;19.40;47.90;;;;;;5066830;28;20072;-76
2023/06/05 01:33:43;;;;;;;2.13;1.70;;;19.30;48.00;;;;;;5061616;28;20029;-76
2023/06/05 01:36:13;;;;;;;2.47;1.70;;;19.20;48.00;;;;;;5089703;28;20040;-75
2023/06/05 01:38:41;;;;;;;2.33;1.85;;;19.20;48.10;;;;;;5050407;28;20166;-77
2023/06/05 01:41:07;;;;;;;2.60;1.65;;;19.20;48.10;;;;;;5053331;28;20040;-75
2023/06/05 01:43:35;;;;;;;3.00;1.90;;;19.10;48.10;;;;;;5060780;28;20024;-74
2023/06/05 01:46:00;;;;;;;2.13;1.70;;;19.10;48.20;;;;;;5065656;28;20047;-75
2023/06/05 01:48:30;;;;;;;3.03;1.60;;;19.00;48.30;;;;;;5046048;28;20028;-78
2023/06/05 01:51:00;;;;;;;2.60;1.60;;;19.00;48.40;;;;;;5066696;28;20127;-75
2023/06/05 01:53:27;;;;;;;3.33;1.90;;;19.00;48.40;;;;;;5036169;28;20021;-75
2023/06/05 01:55:56;;;;;;;2.70;1.73;;;18.90;48.40;;;;;;5065227;28;20035;-75
2023/06/05 01:58:26;;;;;;;3.08;2.03;;;18.90;48.50;;;;;;5053621;28;20026;-75
2023/06/05 02:00:53;;;;;;;4.07;1.98;;;18.80;48.50;;;;;;5054949;28;20025;-75
2023/06/05 02:03:21;;;;;;;3.60;1.92;;;18.80;48.60;;;;;;5063806;28;20051;-75
2023/06/05 02:05:47;;;;;;;2.50;1.83;;;18.80;48.60;;;;;;5069591;28;20033;-75
2023/06/05 02:08:17;;;;;;;2.50;1.65;;;18.70;48.60;;;;;;5062991;28;20104;-76
2023/06/05 02:10:44;;;;;;;2.17;1.67;;;18.70;48.70;;;;;;5050174;28;20516;-76
2023/06/05 02:13:10;;;;;;;2.33;1.60;;;18.70;48.70;;;;;;5022200;28;20128;-76
2023/06/05 02:15:37;;;;;;;3.47;2.08;;;18.60;48.70;;;;;;5046197;28;20089;-75
2023/06/05 02:18:04;;;;;;;1.95;1.63;;;18.60;48.80;;;;;;5050598;28;20032;-76
2023/06/05 02:20:32;;;;;;;2.78;1.80;;;18.50;48.80;;;;;;5058349;28;20466;-76
2023/06/05 02:22:58;;;;;;;2.53;1.85;;;18.50;48.90;;;;;;5096829;28;20543;-76
2023/06/05 02:25:26;;;;;;;3.10;2.00;;;18.50;49.00;;;;;;5061570;28;20036;-75
2023/06/05 02:27:52;;;;;;;3.25;2.15;;;18.40;49.00;;;;;;5068881;28;20116;-76
2023/06/05 02:30:18;;;;;;;2.35;2.00;;;18.40;49.00;;;;;;5065134;28;20106;-76
2023/06/05 02:32:44;;;;;;;2.53;1.95;;;18.40;49.10;;;;;;5053376;28;20478;-76
2023/06/05 02:35:12;;;;;;;2.85;2.03;;;18.40;49.20;;;;;;5049666;28;20040;-75
2023/06/05 02:37:43;;;;;;;2.80;2.00;;;18.30;49.20;;;;;;5069841;28;20024;-75
2023/06/05 02:40:11;;;;;;;3.30;2.30;;;18.30;49.20;;;;;;5071957;28;20044;-78
2023/06/05 02:42:37;;;;;;;2.00;1.75;;;18.20;49.20;;;;;;5066849;28;20024;-74
2023/06/05 02:45:04;;;;;;;2.38;1.95;;;18.20;49.30;;;;;;5098343;28;20040;-76
2023/06/05 02:47:30;;;;;;;3.50;2.13;;;18.20;49.40;;;;;;5081018;28;20039;-77
2023/06/05 02:49:57;;;;;;;3.25;2.05;;;18.10;49.40;;;;;;5065542;28;20059;-76
2023/06/05 02:52:24;;;;;;;3.42;2.08;;;18.10;49.50;;;;;;5082875;28;20089;-77
2023/06/05 02:54:51;;;;;;;2.50;1.75;;;18.00;49.40;;;;;;5080698;28;20028;-76
2023/06/05 02:57:17;;;;;;;2.20;1.90;;;18.00;49.50;;;;;;5097643;28;20040;-74
2023/06/05 02:59:44;;;;;;;2.80;2.00;;;18.00;49.60;;;;;;5098105;28;20024;-74
2023/06/05 03:02:13;;;;;;;3.30;2.38;;;17.90;49.60;;;;;;5096259;28;20027;-76
2023/06/05 03:04:42;;;;;;;2.95;2.10;;;17.90;49.60;;;;;;5062937;28;20047;-76
2023/06/05 03:07:09;;;;;;;3.28;2.13;;;17.90;49.70;;;;;;5078308;28;20036;-78
2023/06/05 03:09:37;;;;;;;2.20;1.90;;;17.90;49.80;;;;;;5078701;28;20020;-78
2023/06/05 03:12:03;;;;;;;2.92;2.30;;;17.80;49.70;;;;;;5078236;28;20070;-76
2023/06/05 03:14:33;;;;;;;3.60;2.17;;;17.80;49.70;;;;;;5078720;28;20491;-78
2023/06/05 03:17:00;;;;;;;2.67;2.17;;;17.80;49.80;;;;;;5062566;28;20056;-76
2023/06/05 03:19:27;;;;;;;3.15;2.38;;;17.80;50.50;;;;;;5093851;28;20056;-76
2023/06/05 03:21:55;;;;;;;3.92;2.40;;;17.70;49.90;;;;;;5078034;28;20116;-77
2023/06/05 03:24:24;;;;;;;3.17;2.30;;;17.70;50.00;;;;;;5094742;28;20059;-76
2023/06/05 03:26:54;;;;;;;2.83;2.20;;;17.70;50.00;;;;;;5079436;28;20020;-76
2023/06/05 03:29:21;;;;;;;2.80;2.33;;;17.60;50.10;;;;;;5078680;28;20032;-76
2023/06/05 03:31:48;;;;;;;3.25;2.50;;;17.60;50.10;;;;;;5094834;28;20035;-76
2023/06/05 03:34:13;;;;;;;2.83;2.20;;;17.60;50.20;;;;;;5095835;28;20411;-76
2023/06/05 03:36:39;;;;;;;2.88;2.25;;;17.50;50.20;;;;;;5096609;28;20392;-76
2023/06/05 03:39:08;;;;;;;3.88;2.30;;;17.50;50.20;;;;;;5094419;28;20047;-78
2023/06/05 03:41:36;;;;;;;3.78;2.30;;;17.50;50.30;;;;;;5062252;28;20097;-76
2023/06/05 03:44:03;;;;;;;3.60;2.42;;;17.40;50.30;;;;;;5094777;28;20453;-76
2023/06/05 03:46:31;;;;;;;3.17;2.40;;;17.40;50.30;;;;;;5077500;28;20028;-76
2023/06/05 03:49:05;;;;;;;4.53;2.55;;;17.40;50.30;;;;;;5060997;28;20028;-77
2023/06/05 03:51:31;;;;;;;3.40;2.25;;;17.40;50.40;;;;;;5061991;28;20082;-75
2023/06/05 03:53:58;;;;;;;3.72;2.78;;;17.30;50.40;;;;;;5094260;28;20036;-74
2023/06/05 03:56:28;;;;;;;2.78;2.40;;;17.30;50.50;;;;;;5077235;28;20031;-75
2023/06/05 03:58:55;;;;;;;2.95;2.10;;;17.30;50.60;;;;;;5077695;28;20028;-74
2023/06/05 04:01:22;;;;;;;3.45;2.60;;;17.30;50.60;;;;;;5061409;28;20034;-75
2023/06/05 04:03:48;;;;;;;3.42;2.50;;;17.20;50.60;;;;;;5077398;28;20115;-76
2023/06/05 04:06:14;;;;;;;4.03;2.53;;;17.20;50.70;;;;;;5076435;28;20114;-75
2023/06/05 04:08:40;;;;;;;3.08;2.40;;;17.20;50.70;;;;;;5076727;28;20477;-74
2023/06/05 04:11:06;;;;;;;3.90;2.67;;;17.20;50.70;;;;;;5094136;28;20039;-75
2023/06/05 04:13:32;;;;;;;3.63;2.65;;;17.20;50.80;;;;;;5077009;28;20392;-76
2023/06/05 04:16:01;;;;;;;4.22;2.67;;;17.10;50.80;;;;;;5077404;28;20043;-75
2023/06/05 04:18:28;;;;;;;3.30;2.22;;;17.10;50.80;;;;;;5094453;28;20051;-75
2023/06/05 04:20:54;;;;;;;3.17;2.35;;;17.10;50.90;;;;;;5093705;28;20487;-75
2023/06/05 04:23:22;;;;;;;3.25;2.58;;;17.10;50.90;;;;;;5076996;28;20034;-77
2023/06/05 04:25:48;;;;;;;3.88;2.63;;;17.10;51.00;;;;;;5043707;28;20036;-75
2023/06/05 04:28:15;;;;;;;3.63;2.40;;;17.00;50.90;;;;;;5042961;28;20035;-75
2023/06/05 04:30:41;;;;;;;3.65;2.53;;;17.00;51.00;;;;;;5076216;28;20081;-76
2023/06/05 04:33:06;;;;;;;3.25;2.42;;;17.00;51.00;;;;;;5094170;28;20032;-74
2023/06/05 04:35:35;;;;;;;3.80;2.63;;;17.00;51.10;;;;;;5076365;28;20056;-75
2023/06/05 04:38:01;;;;;;;3.58;2.40;;;16.90;51.10;;;;;;5093715;28;20365;-75
2023/06/05 04:40:27;;;;;;;4.15;2.60;;;16.90;51.10;;;;;;5076705;28;20425;-76
2023/06/05 04:42:54;;;;;;;3.88;2.53;;;16.90;51.10;;;;;;5092887;28;20058;-75
2023/06/05 04:45:21;;;;;;;3.40;2.55;;;16.90;51.20;;;;;;5044533;28;20097;-74
2023/06/05 04:47:49;;;;;;;3.78;2.58;;;16.90;51.30;;;;;;5076709;28;20035;-76
2023/06/05 04:50:24;;;;;;;3.55;2.63;;;16.90;51.30;;;;;;5059488;28;20515;-75
2023/06/05 04:52:51;;;;;;;3.80;2.50;;;16.80;51.30;;;;;;5075532;28;20468;-75
2023/06/05 04:55:16;;;;;;;3.92;2.60;;;16.80;51.30;;;;;;5092684;28;20040;-75
2023/06/05 04:57:42;;;;;;;4.57;2.70;;;16.80;51.30;;;;;;5059873;28;20044;-76
2023/06/05 05:00:10;;;;;;;4.43;2.58;;;16.80;51.40;;;;;;5092959;28;20035;-75
2023/06/05 05:02:36;;;;;;;3.28;2.53;;;16.80;51.40;;;;;;5092839;28;20119;-75
2023/06/05 05:05:04;;;;;;;3.83;2.55;;;16.70;51.40;;;;;;5059552;28;20028;-76
2023/06/05 05:07:30;;;;;;;4.00;2.70;;;16.80;51.50;;;;;;5059581;28;20081;-74
2023/06/05 05:09:56;;;;;;;3.97;2.63;;;16.70;51.50;;;;;;5059231;28;20032;-74
2023/06/05 05:12:22;;;;;;;4.55;2.75;;;16.70;51.50;;;;;;5076063;28;20034;-75
2023/06/05 05:14:48;;;;;;;3.63;2.50;;;16.70;51.50;;;;;;5075323;28;20113;-75
2023/06/05 05:17:19;;;;;;;3.75;2.70;;;16.70;51.60;;;;;;5092689;28;20040;-74
2023/06/05 05:19:45;;;;;;;3.78;2.55;;;16.70;51.50;;;;;;5076251;28;20039;-76
2023/06/05 05:22:11;;;;;;;3.83;2.70;;;16.70;51.60;;;;;;5075280;28;20035;-77
2023/06/05 05:24:37;;;;;;;3.92;2.80;;;16.70;51.60;;;;;;5058558;28;20028;-76
2023/06/05 05:27:03;;;;;;;4.22;2.70;;;16.70;51.60;;;;;;5092763;28;20028;-75
2023/06/05 05:29:29;;;;;;;3.58;2.50;;;16.70;51.70;;;;;;5075174;28;20032;-75
2023/06/05 05:31:55;;;;;;;5.03;2.80;;;16.70;51.70;;;;;;5076089;28;20062;-75
2023/06/05 05:34:21;;;;;;;4.05;2.80;;;16.60;51.70;;;;;;5075175;28;20468;-75
2023/06/05 05:36:47;;;;;;;3.42;2.60;;;16.60;51.70;;;;;;5058356;28;20056;-74
2023/06/05 05:39:13;;;;;;;3.83;2.83;;;16.60;51.70;;;;;;5075038;28;20157;-75
2023/06/05 05:41:40;;;;;;;3.25;2.42;;;16.60;51.80;;;;;;5075495;28;20448;-77
2023/06/05 05:44:06;;;;;;;3.75;2.60;;;16.60;51.80;;;;;;5092031;28;20068;-77
2023/06/05 05:46:32;;;;;;;3.25;2.40;;;16.60;51.80;;;;;;5091978;28;20456;-76
2023/06/05 05:48:58;;;;;;;3.80;2.65;;;16.60;51.80;;;;;;5074767;28;20043;-75
2023/06/05 05:51:24;;;;;;;4.00;3.08;;;16.60;51.80;;;;;;5092008;28;20063;-74
2023/06/05 05:53:50;;;;;;;3.80;2.58;;;16.60;51.90;;;;;;5091524;28;20499;-75
2023/06/05 05:56:15;;;;;;;3.90;2.83;;;16.60;51.90;;;;;;5092289;28;20366;-75
2023/06/05 05:58:42;;;;;;;4.38;2.70;;;16.60;51.90;;;;;;5074714;28;20496;-76
2023/06/05 06:01:08;;;;;;;4.45;2.58;;;16.60;52.00;;;;;;5092363;28;20028;-75
2023/06/05 06:03:36;;;;;;;2.72;2.13;;;16.60;52.00;;;;;;5091982;28;20376;-76
2023/06/05 06:06:06;;;;;;;3.88;2.88;;;16.60;52.00;;;;;;5091976;28;20506;-75
2023/06/05 06:08:33;;;;;;;3.15;2.60;;;16.60;52.10;;;;;;5092291;28;20482;-80
2023/06/05 06:10:59;;;;;;;2.60;2.33;;;16.60;52.10;;;;;;5075211;28;20055;-75
2023/06/05 06:13:25;;;;;;;4.13;2.80;;;16.50;52.10;;;;;;5075097;28;20205;-75
2023/06/05 06:15:51;;;;;;;4.57;2.78;;;16.60;52.20;;;;;;5075023;28;20036;-74
2023/06/05 06:18:17;;;;;;;3.83;2.65;;;16.60;52.20;;;;;;5092942;28;20039;-75
2023/06/05 06:20:43;;;;;;;3.38;2.55;;;16.60;52.30;;;;;;5091497;28;20388;-76
2023/06/05 06:23:09;;;;;;;4.20;2.70;;;16.60;52.30;;;;;;5075214;28;20377;-76
2023/06/05 06:25:34;;;;;;;3.28;2.40;;;16.60;52.30;;;;;;5092742;28;20032;-74
2023/06/05 06:28:01;;;;;;;4.38;3.00;;;16.60;52.30;;;;;;5075267;28;20043;-76
2023/06/05 06:30:27;;;;;;;3.88;2.97;;;16.60;52.40;;;;;;5074758;28;20365;-75
2023/06/05 06:32:57;;;;;;;3.97;2.67;;;16.60;52.40;;;;;;5091266;28;20028;-75
2023/06/05 06:35:26;;;;;;;4.75;2.55;;;16.60;52.40;;;;;;5075085;28;20032;-75
2023/06/05 06:37:56;;;;;;;3.63;2.38;;;16.60;53.00;;;;;;5075584;28;20032;-76
2023/06/05 06:40:23;;;;;;;4.13;2.72;;;16.60;52.40;;;;;;5091912;28;20028;-75
2023/06/05 06:42:50;;;;;;;3.35;2.40;;;16.60;52.40;;;;;;5091366;28;20141;-75
2023/06/05 06:45:23;;;;;;;3.63;2.63;;;16.60;52.40;;;;;;5060581;28;20472;-74
2023/06/05 06:47:48;;;;;;;3.72;2.47;;;16.60;52.40;;;;;;5091901;28;20056;-75
2023/06/05 06:50:14;;;;;;;3.97;2.83;;;16.60;52.40;;;;;;5091768;28;20067;-74
2023/06/05 06:52:40;;;;;;;3.13;2.30;;;16.70;52.50;;;;;;5091409;28;20028;-75
2023/06/05 06:55:07;;;;;;;4.72;3.00;;;16.70;52.50;;;;;;5093187;28;20040;-74
2023/06/05 06:57:33;;;;;;;4.95;2.60;;;16.70;52.50;;;;;;5078530;28;20073;-75
2023/06/05 06:59:59;;;;;;;4.03;2.40;;;16.70;52.60;;;;;;5095107;28;20415;-75
2023/06/05 07:02:25;;;;;;;3.47;2.55;;;16.70;52.60;;;;;;5078101;28;20036;-74
2023/06/05 07:04:53;;;;;;;3.15;2.05;;;16.70;53.30;;;;;;5094647;28;20393;-75
2023/06/05 07:07:21;;;;;;;3.75;2.47;;;16.70;52.60;;;;;;5095061;28;20035;-74
2023/06/05 07:09:50;;;;;;;4.20;2.80;;;16.70;52.60;;;;;;5094855;28;20024;-76
2023/06/05 07:12:19;;;;;;;3.22;2.50;;;16.80;52.80;;;;;;5077988;28;20035;-75
2023/06/05 07:14:45;;;;;;;4.10;2.53;;;16.80;52.80;;;;;;5078634;28;20437;-76
2023/06/05 07:17:11;;;;;;;3.83;2.55;;;16.80;52.80;;;;;;5078803;28;20024;-76
2023/06/05 07:19:37;;;;;;;2.97;2.47;;;16.80;52.80;;;;;;5077656;28;20035;-75
2023/06/05 07:22:04;;;;;;;3.25;2.22;;;16.80;52.80;;;;;;5095637;28;20499;-76
2023/06/05 07:24:30;;;;;;;4.50;2.72;;;16.80;52.80;;;;;;5094951;28;20040;-76
2023/06/05 07:26:58;;;;;;;3.58;2.58;;;16.90;52.90;;;;;;5077681;28;20032;-75
2023/06/05 07:29:25;;;;;;;3.97;2.67;;;16.90;52.80;;;;;;5095816;28;20038;-75
2023/06/05 07:31:51;;;;;;;3.05;2.05;;;17.00;52.80;;;;;;5095297;28;20145;-75
2023/06/05 07:34:18;;;;;;;4.25;2.63;;;17.00;52.80;;;;;;5094338;28;20062;-75
2023/06/05 07:36:45;;;;;;;2.80;2.33;;;17.00;52.70;;;;;;5094366;28;20082;-75
2023/06/05 07:39:15;;;;;;;3.63;2.55;;;17.00;52.70;;;;;;5078226;28;20028;-77
2023/06/05 07:41:41;;;;;;;4.43;2.50;;;17.10;52.70;;;;;;5094694;28;20077;-75
2023/06/05 07:44:12;;;;;;;4.03;2.67;;;17.20;52.70;;;;;;5096181;28;20052;-75
2023/06/05 07:46:45;;;;;;;4.50;2.40;;;17.20;52.70;;;;;;5077493;28;20464;-74
2023/06/05 07:49:11;;;;;;;3.50;2.33;;;17.20;52.60;;;;;;5077383;28;20024;-76
2023/06/05 07:51:37;;;;;;;3.47;2.33;;;17.30;52.50;;;;;;5077268;28;20384;-75
2023/06/05 07:54:07;;;;;;;3.00;2.15;;;17.40;52.50;;;;;;5077949;28;20029;-75
2023/06/05 07:56:34;;;;;;;3.35;2.50;;;17.40;52.50;;;;;;5061434;28;20036;-76
2023/06/05 07:59:04;;;;;;;3.50;2.50;;;17.50;52.40;;;;;;5095251;28;20039;-76
2023/06/05 08:01:31;;;;;;;3.85;2.15;;;17.50;52.40;;;;;;5094004;28;20062;-75
2023/06/05 08:03:57;;;;;;;2.72;2.00;;;17.60;52.30;;;;;;5093641;28;20032;-74
2023/06/05 08:06:24;;;;;;;3.25;2.10;;;17.70;52.30;;;;;;5093236;28;20065;-75
2023/06/05 08:08:50;;;;;;;3.60;2.35;;;17.80;52.20;;;;;;5077058;28;20451;-75
2023/06/05 08:11:16;;;;;;;2.75;1.92;;;17.80;52.20;;;;;;5076974;28;20542;-74
2023/06/05 08:13:42;;;;;;;2.90;2.22;;;17.90;52.10;;;;;;5094613;28;20032;-75
2023/06/05 08:16:08;;;;;;;4.53;2.60;;;18.00;52.10;;;;;;5076279;28;20032;-75
2023/06/05 08:18:33;;;;;;;3.40;2.20;;;18.10;52.10;;;;;;5076421;28;20032;-76
2023/06/05 08:20:59;;;;;;;2.95;2.15;;;18.10;52.00;;;;;;5076739;28;20028;-75
2023/06/05 08:23:26;;;;;;;3.38;2.40;;;18.20;51.90;;;;;;5060176;28;20036;-75
2023/06/05 08:25:53;;;;;;;3.17;2.05;;;18.30;51.90;;;;;;5093506;28;20028;-75
2023/06/05 08:28:18;;;;;;;3.28;2.05;;;18.30;51.80;;;;;;5076525;28;20063;-75
2023/06/05 08:30:44;;;;;;;2.83;2.05;;;18.40;51.80;;;;;;5076285;28;20055;-77
2023/06/05 08:33:10;;;;;;;3.10;2.13;;;18.50;51.80;;;;;;5059857;28;20448;-76
2023/06/05 08:35:41;;;;;;;2.92;2.08;;;18.60;51.70;;;;;;5093172;28;20054;-76
2023/06/05 08:38:07;;;;;;;2.83;2.30;;;18.60;51.70;;;;;;5094285;28;20020;-74
2023/06/05 08:40:33;;;;;;;2.30;1.95;;;18.70;51.60;;;;;;5076482;28;20067;-76
2023/06/05 08:43:03;;;;;;;2.03;1.65;;;18.80;51.60;;;;;;5093207;28;20036;-76
2023/06/05 08:45:31;;;;;;;2.53;1.98;;;18.90;51.60;;;;;;5093686;28;20111;-74
2023/06/05 08:48:00;;;;;;;3.28;1.88;;;19.00;51.60;;;;;;5093103;28;20032;-75
2023/06/05 08:50:29;;;;;;;2.50;1.83;;;19.10;51.60;;;;;;5076044;28;20032;-77
2023/06/05 08:52:58;;;;;;;2.95;2.08;;;19.10;51.50;;;;;;5093042;28;20030;-77
2023/06/05 08:55:25;;;;;;;2.60;1.98;;;19.20;51.40;;;;;;5076186;28;20059;-76
2023/06/05 08:57:52;;;;;;;2.63;1.95;;;19.30;51.40;;;;;;5094386;28;20036;-76
2023/06/05 09:00:18;;;;;;;2.65;2.00;;;19.40;51.40;;;;;;5092687;28;20089;-75
2023/06/05 09:02:46;;;;;;;2.78;2.05;;;19.40;51.30;;;;;;5093201;28;20111;-76
2023/06/05 09:05:13;;;;;;;3.00;1.98;;;19.50;51.20;;;;;;5060005;28;20435;-75
2023/06/05 09:07:38;;;;;;;3.17;2.20;;;19.60;51.20;;;;;;5075715;28;20449;-76
2023/06/05 09:10:22;;;;;;;3.58;2.10;;;19.70;51.20;;;;;;5075471;28;20024;-75
2023/06/05 09:12:59;;;;;;;3.70;2.20;;;19.80;51.30;;;;;;5093066;28;20036;-74
2023/06/05 09:15:30;;;;;;;2.72;1.80;;;19.90;51.20;;;;;;5092705;28;20032;-77
2023/06/05 09:18:15;;;;;;;3.53;2.10;;;20.00;51.20;;;;;;5092057;28;20032;-76
2023/06/05 09:20:48;;;;;;;2.55;2.00;;;20.10;51.30;;;;;;5092243;28;20035;-76
2023/06/05 09:23:24;;;;;;;2.22;1.95;;;20.20;51.10;;;;;;5075943;28;20036;-77
2023/06/05 09:25:50;;;;;;;2.90;2.00;;;20.30;51.10;;;;;;5075687;28;20047;-77
2023/06/05 09:28:17;;;;;;;2.33;1.83;;;20.30;51.00;;;;;;5075554;28;20106;-77
2023/06/05 09:31:02;;;;;;;2.65;2.00;;;20.50;51.10;;;;;;5092550;28;20035;-75
2023/06/05 09:33:30;;;;;;;2.10;1.90;;;20.60;51.30;;;;;;5092858;28;20034;-75
2023/06/05 09:36:13;;;;;;;2.75;2.00;;;20.70;51.20;;;;;;5092619;28;20052;-76
2023/06/05 09:38:42;;;;;;;2.72;2.10;;;20.80;51.30;;;;;;5092461;28;20458;-77
2023/06/05 09:41:08;;;;;;;3.22;2.10;;;20.90;51.20;;;;;;5059269;28;20388;-76
2023/06/05 09:43:36;;;;;;;2.85;1.80;;;20.90;51.20;;;;;;5092228;28;20040;-77
2023/06/05 09:46:13;;;;;;;2.60;1.73;;;21.00;51.20;;;;;;5076438;28;20040;-76
2023/06/05 09:48:43;;;;;;;3.25;2.10;;;21.10;51.30;;;;;;5093153;28;20445;-76
2023/06/05 09:51:12;;;;;;;3.38;2.03;;;21.20;51.20;;;;;;5059026;28;20101;-75
2023/06/05 09:53:43;;;;;;;3.03;2.28;;;21.30;51.20;;;;;;5091918;28;20512;-76
2023/06/05 09:56:12;;;;;;;3.45;2.00;;;21.40;51.30;;;;;;5091444;28;20067;-76
2023/06/05 09:58:39;;;;;;;3.17;2.00;;;21.50;51.40;;;;;;5092029;28;20541;-76
2023/06/05 10:01:07;;;;;;;2.10;1.67;;;21.60;51.30;;;;;;5075655;28;20139;-76
2023/06/05 10:03:36;;;;;;;2.78;2.00;;;21.70;51.30;;;;;;5092047;28;20100;-76
2023/06/05 10:06:04;;;;;;;3.50;1.92;;;21.80;51.20;;;;;;5075745;28;20111;-77
2023/06/05 10:08:30;;;;;;;2.38;1.85;;;21.90;51.10;;;;;;5091579;28;20020;-76
2023/06/05 10:10:57;;;;;;;2.70;2.00;;;22.00;51.10;;;;;;5093598;28;20127;-72
2023/06/05 10:13:23;;;;;;;2.67;1.90;;;22.10;51.00;;;;;;5092079;28;20024;-74
2023/06/05 10:15:52;;;;;;;2.83;1.90;;;22.20;51.00;;;;;;5075290;28;20097;-72
2023/06/05 10:18:17;;;;;;;2.42;1.80;;;22.20;51.00;;;;;;5092763;28;20468;-69
2023/06/05 10:20:46;;;;;;;3.03;2.03;;;22.40;51.00;;;;;;5092274;28;20032;-72
2023/06/05 10:23:15;;;;;;;3.63;2.00;;;22.50;51.10;;;;;;5075160;28;20586;-73
2023/06/05 10:25:42;;;;;;;3.00;1.98;;;22.60;51.00;;;;;;5091680;28;20150;-72
2023/06/05 10:28:28;;;;;;;2.78;1.77;;;22.60;51.00;;;;;;5092067;28;20083;-71
2023/06/05 10:31:17;;;;;;;2.72;1.67;;;22.70;51.00;;;;;;5096417;28;20111;-73
2023/06/05 10:33:57;;;;;;;3.25;2.00;;;22.80;51.00;;;;;;5095935;28;20028;-72
2023/06/05 10:36:45;;;;;;;3.17;1.90;;;22.90;50.80;;;;;;5095260;28;20056;-72
2023/06/05 10:39:13;;;;;;;2.33;1.90;;;23.00;50.90;;;;;;5096235;28;20032;-73
2023/06/05 10:41:39;;;;;;;2.17;1.75;;;23.10;50.70;;;;;;5095786;28;20032;-72
2023/06/05 10:44:05;;;;;;;3.25;2.28;;;23.20;50.80;;;;;;5062160;28;20032;-73
2023/06/05 10:46:36;;;;;;;2.75;1.90;;;23.30;50.80;;;;;;5078478;28;20036;-72
2023/06/05 10:49:18;;;;;;;2.58;1.75;;;23.40;50.90;;;;;;5079178;28;20055;-72
2023/06/05 10:51:49;;;;;;;3.97;2.03;;;23.50;50.90;;;;;;5095346;28;20028;-72
2023/06/05 10:54:38;;;;;;;2.67;2.08;;;23.60;51.00;;;;;;5078772;28;20597;-72
2023/06/05 10:57:06;;;;;;;2.55;1.98;;;23.60;51.00;;;;;;5094945;28;20040;-73
2023/06/05 10:59:39;;;;;;;3.00;1.73;;;23.80;51.00;;;;;;5079119;28;20082;-72
2023/06/05 11:02:06;;;;;;;2.60;1.92;;;23.80;51.10;;;;;;5061506;28;20029;-71
2023/06/05 11:04:47;;;;;;;2.65;1.80;;;23.80;51.10;;;;;;5094794;28;20041;-72
2023/06/05 11:07:28;;;;;;;3.40;2.05;;;23.90;51.20;;;;;;5077972;28;20119;-72
2023/06/05 11:10:07;;;;;;;3.38;1.80;;;23.90;51.20;;;;;;5078792;28;20471;-75
2023/06/05 11:12:39;;;;;;;3.25;2.10;;;24.00;51.30;;;;;;5096635;28;20039;-73
2023/06/05 11:15:33;;;;;;;2.00;1.70;;;24.10;51.40;;;;;;5094689;28;20051;-73
2023/06/05 11:18:39;;;;;;;2.10;1.80;;;24.10;51.50;;;;;;5095029;28;20066;-73
2023/06/05 11:21:04;;;;;;;2.88;1.75;;;24.10;51.50;;;;;;5095946;28;20031;-72
2023/06/05 11:23:30;;;;;;;5.15;1.92;;;24.20;51.50;;;;;;5095732;28;20028;-72
2023/06/05 11:25:58;;;;;;;2.22;1.65;;;24.20;52.20;;;;;;5095929;28;20090;-73
2023/06/05 11:28:43;;;;;;;2.47;1.85;;;24.20;51.60;;;;;;5095469;28;20055;-73
2023/06/05 11:31:10;;;;;;;2.67;1.90;;;24.30;51.80;;;;;;5095539;28;20122;-72
2023/06/05 11:33:36;;;;;;;2.38;1.65;;;24.30;51.70;;;;;;5094423;28;20122;-72
2023/06/05 11:36:06;;;;;;;3.13;1.98;;;24.30;51.80;;;;;;5077234;28;20059;-73
2023/06/05 11:38:33;;;;;;;2.70;1.90;;;24.40;52.00;;;;;;5095479;28;20081;-73
2023/06/05 11:40:59;;;;;;;2.47;1.52;;;24.40;52.00;;;;;;5093940;28;20032;-72
2023/06/05 11:43:25;;;;;;;2.63;1.80;;;24.40;52.00;;;;;;5077654;28;20028;-72
2023/06/05 11:45:56;;;;;;;2.05;1.70;;;24.50;52.10;;;;;;5078099;28;20032;-73
2023/06/05 11:48:24;;;;;;;1.67;1.42;;;24.50;52.10;;;;;;5094021;28;20027;-72
2023/06/05 11:51:02;;;;;;;1.85;1.50;;;24.50;52.10;;;;;;5095127;28;20028;-71
2023/06/05 11:53:31;;;;;;;2.85;1.77;;;24.60;52.20;;;;;;5094520;28;20043;-72
2023/06/05 11:58:31;;;;;;;1.67;1.58;;;24.60;52.10;;;;;;5095252;28;20111;-72
2023/06/05 12:01:17;;;;;;;2.30;1.60;;;24.60;52.00;;;;;;5077045;28;20100;-72
2023/06/05 12:03:45;;;;;;;2.42;1.80;;;24.60;51.90;;;;;;5077340;28;20039;-72
2023/06/05 12:06:13;;;;;;;1.83;1.45;;;24.60;51.80;;;;;;5093736;28;20031;-72
2023/06/05 12:08:39;;;;;;;2.00;1.80;;;24.70;51.80;;;;;;5095073;28;20457;-73
2023/06/05 12:11:25;;;;;;;2.13;1.55;;;24.70;51.80;;;;;;5094760;28;20039;-72
2023/06/05 12:13:55;;;;;;;2.50;1.90;;;24.70;51.70;;;;;;5095828;28;20028;-71
2023/06/05 12:16:34;;;;;;;3.65;1.90;;;24.70;51.50;;;;;;5094966;28;20097;-72
2023/06/05 12:19:00;;;;;;;1.77;1.60;;;24.80;51.40;;;;;;5093822;28;20033;-72
2023/06/05 12:21:27;;;;;;;3.20;1.90;;;24.80;51.30;;;;;;5076592;28;20039;-72
2023/06/05 12:24:06;;;;;;;2.30;1.88;;;24.80;51.10;;;;;;5076960;28;20028;-73
2023/06/05 12:26:53;;;;;;;2.15;1.80;;;24.80;51.10;;;;;;5094796;28;20056;-72
2023/06/05 12:29:23;;;;;;;2.55;1.73;;;24.80;51.00;;;;;;5094935;28;20075;-72
2023/06/05 12:31:49;;;;;;;2.58;1.80;;;24.80;50.90;;;;;;5076902;28;20032;-72
2023/06/05 12:34:18;;;;;;;2.92;1.95;;;24.80;50.80;;;;;;5094435;28;20032;-73
2023/06/05 12:36:44;;;;;;;2.58;1.65;;;24.80;50.70;;;;;;5093484;28;20123;-72
2023/06/05 12:39:15;;;;;;;1.95;1.60;;;24.90;50.60;;;;;;5094330;28;20036;-72
2023/06/05 12:41:42;;;;;;;2.30;1.60;;;24.90;50.60;;;;;;5093128;28;20028;-73
2023/06/05 12:44:08;;;;;;;2.80;1.98;;;24.90;50.60;;;;;;5093535;28;20533;-73
2023/06/05 12:46:35;;;;;;;1.90;1.67;;;24.90;50.40;;;;;;5093175;28;20071;-72
2023/06/05 12:49:02;;;;;;;2.53;1.63;;;24.90;50.30;;;;;;5094338;28;20460;-72
2023/06/05 12:51:28;;;;;;;2.67;1.80;;;24.90;50.20;;;;;;5092264;28;20040;-70
2023/06/05 12:53:55;;;;;;;1.90;1.60;;;25.00;50.30;;;;;;5093692;28;20028;-71
2023/06/05 12:56:26;;;;;;;2.80;1.80;;;25.00;50.30;;;;;;5092787;28;20044;-73
2023/06/05 12:58:57;;;;;;;3.30;1.67;;;25.00;50.20;;;;;;5092736;28;20161;-71